Time;durP1;ratioP1;P1;durP2;ratioP2;P2;SDS_P1;SDS_P2;PMS_P1;PMS_P2;Temp;Humidity;BMP_temperature;BMP_pressure;BME280_temperature;BME280_humidity;BME280_pressure;Samples;Min_cycle;Max_cycle;Signal;HPM_P1;HPM_P2
2021/11/17 02:27:36;;;;;;;57.85;21.00;;;;;;;4.37;95.85;101778.13;5054788;28;20081;-74
2021/11/17 02:30:30;;;;;;;51.58;20.17;;;;;;;4.43;96.12;101780.31;5051193;28;20150;-74
2021/11/17 02:32:59;;;;;;;;;;;;;;;4.38;95.48;101782.34;5040047;28;20402;-75
2021/11/17 02:35:54;;;;;;;56.08;20.05;;;;;;;4.36;96.22;101780.78;5042194;28;19912;-74
2021/11/17 02:38:40;;;;;;;54.00;21.17;;;;;;;4.39;96.33;101780.59;5036869;28;20553;-74
2021/11/17 02:41:08;;;;;;;50.92;19.77;;;;;;;4.33;96.23;101778.38;5052912;28;20036;-75
2021/11/17 02:43:43;;;;;;;55.67;20.58;;;;;;;4.29;96.74;101772.59;5063325;28;20044;-75
2021/11/17 02:46:27;;;;;;;56.45;20.52;;;;;;;4.36;96.50;101778.22;5040795;28;20230;-74
2021/11/17 02:49:10;;;;;;;51.17;19.27;;;;;;;4.37;96.24;101767.00;5035154;28;20047;-74
2021/11/17 02:52:09;;;;;;;63.80;21.23;;;;;;;4.38;96.63;101771.25;5034343;28;20035;-74
2021/11/17 02:54:37;;;;;;;55.05;20.05;;;;;;;4.33;96.79;101771.50;5029026;28;20044;-75
2021/11/17 02:57:16;;;;;;;54.20;20.77;;;;;;;4.36;96.81;101775.66;5042203;28;20072;-74
2021/11/17 02:59:54;;;;;;;51.65;20.27;;;;;;;4.35;97.02;101772.25;5037392;28;20455;-73
2021/11/17 03:02:46;;;;;;;47.75;19.25;;;;;;;4.34;96.75;101767.22;5029114;28;20106;-74
2021/11/17 03:05:14;;;;;;;46.90;19.42;;;;;;;4.32;97.24;101776.75;5033804;28;20120;-74
2021/11/17 03:07:58;;;;;;;51.65;20.10;;;;;;;4.33;96.70;101775.81;5046300;28;20032;-74
2021/11/17 03:10:52;;;;;;;60.72;21.88;;;;;;;4.35;97.04;101767.13;5061124;28;20395;-74
2021/11/17 03:13:48;;;;;;;58.20;20.05;;;;;;;4.36;96.53;101771.34;5063834;28;20419;-74
2021/11/17 03:16:41;;;;;;;53.38;20.15;;;;;;;4.41;96.70;101771.88;5020963;28;20036;-74
2021/11/17 03:19:48;;;;;;;51.38;20.67;;;;;;;4.43;96.10;101772.63;5052438;28;20021;-76
2021/11/17 03:22:27;;;;;;;60.92;20.85;;;;;;;4.44;96.48;101771.69;5010127;28;20523;-74
2021/11/17 03:25:08;;;;;;;60.47;20.98;;;;;;;4.47;96.41;101776.66;5048199;28;20123;-74
2021/11/17 03:28:04;;;;;;;63.42;21.67;;;;;;;4.44;96.31;101771.69;5029403;28;20035;-74
2021/11/17 03:31:06;;;;;;;56.75;20.48;;;;;;;4.40;96.75;101761.69;5056316;28;20430;-74
2021/11/17 03:34:13;;;;;;;54.05;19.75;;;;;;;4.39;96.73;101773.72;5044039;28;20040;-74
2021/11/17 03:36:48;;;;;;;62.85;19.48;;;;;;;4.48;96.37;101762.06;5005184;28;20082;-74
2021/11/17 03:39:35;;;;;;;61.92;20.17;;;;;;;4.46;96.54;101771.59;5047250;28;20029;-74
2021/11/17 03:42:35;;;;;;;55.13;20.38;;;;;;;4.57;96.11;101802.59;5046310;28;20425;-74
2021/11/17 03:45:20;;;;;;;57.15;19.50;;;;;;;4.55;96.13;101783.06;5064649;28;20033;-75
2021/11/17 03:47:54;;;;;;;65.10;22.50;;;;;;;4.51;96.46;101784.19;5055902;28;20025;-75
2021/11/17 03:50:27;;;;;;;118.25;37.67;;;;;;;4.63;96.38;101793.69;5043411;28;20553;-74
2021/11/17 03:53:14;;;;;;;227.73;77.00;;;;;;;4.51;96.61;101786.75;5024914;28;20472;-74
2021/11/17 03:56:08;;;;;;;132.32;45.17;;;;;;;4.54;96.44;101789.97;5030982;28;20068;-74
2021/11/17 03:58:48;;;;;;;;;;;;;;;4.58;96.16;101791.41;5059822;28;20063;-74
2021/11/17 04:01:21;;;;;;;77.00;26.77;;;;;;;4.66;95.65;101793.53;5062183;28;19970;-74
2021/11/17 04:04:22;;;;;;;61.95;22.85;;;;;;;4.58;95.87;101800.88;5066168;28;20115;-74
2021/11/17 04:06:51;;;;;;;78.57;26.02;;;;;;;4.48;95.99;101810.84;5047177;28;20425;-75
2021/11/17 04:09:29;;;;;;;67.20;22.33;;;;;;;4.61;96.28;101823.78;5065924;28;20028;-75
2021/11/17 04:12:11;;;;;;;79.05;25.63;;;;;;;4.64;95.56;101823.63;5063090;28;20033;-75
2021/11/17 04:14:42;;;;;;;90.03;33.90;;;;;;;4.65;95.93;101827.81;5048451;28;20048;-74
2021/11/17 04:17:14;;;;;;;87.20;35.35;;;;;;;4.63;95.61;101809.97;5047704;28;20462;-74
2021/11/17 04:19:42;;;;;;;75.30;26.00;;;;;;;4.60;96.05;101817.03;5045078;28;20115;-76
2021/11/17 04:22:23;;;;;;;67.07;22.67;;;;;;;4.62;95.79;101820.31;5049857;28;20040;-75
2021/11/17 04:25:14;;;;;;;72.93;24.15;;;;;;;4.66;95.69;101821.78;5025850;28;20425;-75
2021/11/17 04:28:01;;;;;;;67.03;22.83;;;;;;;4.59;95.96;101823.88;5029583;28;20527;-75
2021/11/17 04:30:52;;;;;;;69.93;22.33;;;;;;;4.55;95.96;101814.72;5039106;28;20409;-75
2021/11/17 04:33:30;;;;;;;73.22;22.65;;;;;;;4.54;96.05;101800.25;5038894;28;20032;-74
2021/11/17 04:35:58;;;;;;;70.80;22.20;;;;;;;4.61;95.39;101800.69;5041143;28;20059;-74
2021/11/17 04:38:27;;;;;;;74.18;22.92;;;;;;;4.57;94.98;101801.78;5042995;28;20110;-74
2021/11/17 04:40:55;;;;;;;69.82;21.75;;;;;;;4.58;95.76;101806.84;5073708;28;20033;-75
2021/11/17 04:43:39;;;;;;;71.35;22.40;;;;;;;4.48;96.42;101816.00;5026665;28;20132;-74
2021/11/17 04:46:08;;;;;;;69.38;21.55;;;;;;;4.44;96.81;101820.47;5048086;28;20371;-74
2021/11/17 04:48:59;;;;;;;77.43;23.15;;;;;;;4.51;96.37;101818.38;5063899;28;20043;-74
2021/11/17 04:51:36;;;;;;;69.45;21.40;;;;;;;4.46;96.21;101803.28;5011130;28;20039;-73
2021/11/17 04:54:24;;;;;;;70.47;24.50;;;;;;;4.54;96.16;101797.66;5050681;28;20173;-74
2021/11/17 04:57:34;;;;;;;71.43;23.08;;;;;;;4.60;96.36;101799.03;5060290;28;20033;-74
2021/11/17 05:00:23;;;;;;;63.05;22.60;;;;;;;4.52;95.88;101796.09;5031929;28;20056;-74
2021/11/17 05:03:18;;;;;;;71.63;23.38;;;;;;;4.67;95.46;101792.59;5037123;28;20036;-74
2021/11/17 05:06:02;;;;;;;75.75;23.52;;;;;;;4.64;95.18;101792.78;5041161;28;20040;-75
2021/11/17 05:09:13;;;;;;;72.78;23.42;;;;;;;4.59;94.94;101792.25;5056044;28;20479;-75
2021/11/17 05:12:22;;;;;;;82.15;25.25;;;;;;;4.55;95.87;101816.47;5039764;28;20128;-74
2021/11/17 05:14:59;;;;;;;74.72;24.00;;;;;;;4.53;95.68;101834.53;5061996;28;20083;-75
2021/11/17 05:17:53;;;;;;;77.40;23.42;;;;;;;4.56;96.45;101815.53;5058397;28;20039;-75
2021/11/17 05:20:37;;;;;;;67.82;22.52;;;;;;;4.55;96.05;101821.59;5024031;28;20540;-74
2021/11/17 05:23:15;;;;;;;68.28;22.70;;;;;;;4.59;96.43;101815.34;5048647;28;20039;-74
2021/11/17 05:25:46;;;;;;;71.82;24.52;;;;;;;4.56;96.21;101810.41;5025221;28;20025;-74
2021/11/17 05:28:24;;;;;;;79.40;23.83;;;;;;;4.56;96.52;101800.97;5044915;28;20037;-74
2021/11/17 05:31:02;;;;;;;77.70;24.42;;;;;;;4.61;96.10;101790.41;5055991;28;20783;-74
2021/11/17 05:33:53;;;;;;;73.90;24.88;;;;;;;4.67;95.79;101790.03;5064616;28;20027;-73
2021/11/17 05:36:40;;;;;;;83.47;25.30;;;;;;;4.71;95.61;101773.53;5045428;28;20068;-74
2021/11/17 05:39:09;;;;;;;65.50;22.70;;;;;;;4.64;95.72;101778.19;5048595;28;20036;-73
2021/11/17 05:42:02;;;;;;;68.40;23.77;;;;;;;4.63;96.04;101774.00;5066327;28;20027;-74
2021/11/17 05:44:39;;;;;;;65.53;23.60;;;;;;;4.85;94.47;101745.22;5023635;28;20036;-75
2021/11/17 05:47:17;;;;;;;61.90;23.08;;;;;;;4.76;94.66;101750.91;5086947;28;20493;-74
2021/11/17 05:49:54;;;;;;;66.10;22.10;;;;;;;4.77;95.29;101777.47;5062449;28;20426;-74
2021/11/17 05:52:29;;;;;;;63.05;22.50;;;;;;;4.67;95.37;101772.88;5038070;28;20028;-74
2021/11/17 05:55:16;;;;;;;62.00;22.08;;;;;;;4.75;95.78;101774.97;5039629;28;20402;-75
2021/11/17 05:58:15;;;;;;;75.47;26.30;;;;;;;4.82;95.01;101775.41;5037587;28;20502;-73
2021/11/17 06:00:52;;;;;;;72.43;23.90;;;;;;;4.69;95.21;101775.38;5050770;28;20165;-75
2021/11/17 06:03:33;;;;;;;68.03;22.83;;;;;;;4.77;95.19;101785.16;5054948;28;20562;-74
2021/11/17 06:05:58;;;;;;;64.38;24.05;;;;;;;4.74;95.25;101780.22;5018054;28;20332;-74
2021/11/17 06:08:24;;;;;;;66.10;23.80;;;;;;;4.67;95.78;101785.72;5052895;28;20135;-75
2021/11/17 06:10:52;;;;;;;69.55;22.85;;;;;;;4.75;96.10;101787.00;5053088;28;20104;-75
2021/11/17 06:13:18;;;;;;;68.55;23.90;;;;;;;4.78;95.86;101776.53;5045320;28;20039;-74
2021/11/17 06:15:46;;;;;;;65.55;23.55;;;;;;;4.72;95.37;101782.88;5060279;28;20690;-74
2021/11/17 06:18:15;;;;;;;63.72;23.33;;;;;;;4.71;95.77;101776.09;5043821;28;20108;-74
2021/11/17 06:20:42;;;;;;;68.70;22.98;;;;;;;4.77;96.10;101775.72;5071440;28;20099;-74
2021/11/17 06:23:12;;;;;;;65.32;24.02;;;;;;;4.79;96.08;101779.00;5045741;28;20052;-74
2021/11/17 06:25:40;;;;;;;56.53;22.27;;;;;;;4.75;95.40;101767.28;5068266;28;20451;-75
2021/11/17 06:28:08;;;;;;;67.78;21.85;;;;;;;4.76;95.52;101766.34;5037728;28;20518;-73
2021/11/17 06:30:40;;;;;;;65.18;24.75;;;;;;;4.88;95.22;101760.44;5049383;28;20034;-74
2021/11/17 06:33:08;;;;;;;58.83;22.50;;;;;;;4.91;94.93;101758.59;5048215;28;20052;-74
2021/11/17 06:35:35;;;;;;;63.05;22.77;;;;;;;4.86;94.69;101764.03;5050844;28;20032;-74
2021/11/17 06:38:04;;;;;;;61.92;22.48;;;;;;;4.82;95.23;101765.97;5059155;28;20276;-74
2021/11/17 06:40:30;;;;;;;55.55;20.48;;;;;;;4.90;95.39;101764.66;5061302;28;20063;-74
2021/11/17 06:43:00;;;;;;;62.13;22.10;;;;;;;4.88;95.30;101757.88;5063075;28;20451;-74
2021/11/17 06:45:31;;;;;;;57.42;21.35;;;;;;;4.88;95.69;101764.78;5044314;28;20029;-73
2021/11/17 06:47:57;;;;;;;52.63;20.88;;;;;;;4.98;95.32;101759.88;5063513;28;20033;-74
2021/11/17 06:50:23;;;;;;;64.22;21.30;;;;;;;4.98;94.52;101755.56;5043879;28;20040;-75
2021/11/17 06:52:48;;;;;;;57.92;19.63;;;;;;;5.02;94.43;101740.75;5032010;28;20048;-74
2021/11/17 06:55:14;;;;;;;52.97;20.10;;;;;;;5.03;94.38;101737.28;5042398;28;20037;-74
2021/11/17 06:57:40;;;;;;;56.75;19.15;;;;;;;5.06;94.33;101734.50;5031803;28;20096;-73
2021/11/17 07:00:09;;;;;;;52.65;19.58;;;;;;;4.97;94.24;101735.94;5056890;28;20119;-73
2021/11/17 07:02:35;;;;;;;56.78;20.15;;;;;;;5.03;93.61;101737.28;5046642;28;20401;-74
2021/11/17 07:05:02;;;;;;;56.83;22.17;;;;;;;5.10;93.61;101741.09;5051590;28;20395;-74
2021/11/17 07:07:27;;;;;;;53.08;21.02;;;;;;;5.14;94.05;101752.00;5063569;28;20067;-74
2021/11/17 07:09:53;;;;;;;51.72;20.58;;;;;;;5.19;93.77;101766.22;5033986;28;20044;-74
2021/11/17 07:12:18;;;;;;;53.13;20.63;;;;;;;5.28;93.88;101782.00;5061688;28;20025;-74
2021/11/17 07:14:45;;;;;;;58.20;22.48;;;;;;;5.28;93.46;101790.53;5035556;28;20056;-74
2021/11/17 07:17:11;;;;;;;52.30;18.58;;;;;;;5.24;94.02;101807.09;5059038;28;20033;-73
2021/11/17 07:19:36;;;;;;;51.10;19.85;;;;;;;5.21;94.33;101802.94;5060366;28;20186;-74
2021/11/17 07:22:06;;;;;;;52.22;19.58;;;;;;;5.21;94.60;101805.53;5048234;28;20037;-74
2021/11/17 07:24:34;;;;;;;54.40;19.90;;;;;;;5.18;95.06;101800.59;5043635;28;20024;-74
2021/11/17 07:27:00;;;;;;;49.78;19.88;;;;;;;5.24;94.98;101813.06;5064770;28;20483;-76
2021/11/17 07:29:27;;;;;;;51.50;19.17;;;;;;;5.26;95.06;101810.41;5051862;28;20371;-74
2021/11/17 07:31:53;;;;;;;48.55;18.92;;;;;;;5.29;95.23;101807.59;5045606;28;20093;-74
2021/11/17 07:34:19;;;;;;;49.05;19.52;;;;;;;5.31;95.57;101812.66;5044036;28;20435;-74
2021/11/17 07:36:46;;;;;;;46.97;17.65;;;;;;;5.34;95.04;101807.34;5062182;28;20025;-75
2021/11/17 07:39:15;;;;;;;49.00;18.15;;;;;;;5.36;94.80;101819.16;5067641;28;20111;-77
2021/11/17 07:41:47;;;;;;;49.03;19.10;;;;;;;5.42;94.71;101828.25;5030383;28;20060;-73
2021/11/17 07:44:16;;;;;;;46.75;18.40;;;;;;;5.40;95.03;101827.50;5041809;28;20031;-74
2021/11/17 07:46:43;;;;;;;49.08;18.25;;;;;;;5.54;94.23;101831.78;5079867;28;20123;-74
2021/11/17 07:49:10;;;;;;;47.92;18.05;;;;;;;5.53;94.58;101827.56;5059180;28;20033;-74
2021/11/17 07:51:36;;;;;;;47.45;17.02;;;;;;;5.54;94.40;101829.19;5060233;28;20028;-74
2021/11/17 07:54:01;;;;;;;50.13;18.48;;;;;;;5.56;94.43;101820.47;5043276;28;20372;-74
2021/11/17 07:56:27;;;;;;;52.85;19.90;;;;;;;5.54;94.38;101822.34;5059659;28;20490;-75
2021/11/17 07:58:52;;;;;;;39.88;17.35;;;;;;;5.66;93.28;101825.84;5047204;28;20036;-74
2021/11/17 08:01:18;;;;;;;45.13;17.98;;;;;;;5.59;93.68;101827.97;5066838;28;20111;-75
2021/11/17 08:03:47;;;;;;;47.42;18.63;;;;;;;5.64;93.53;101823.38;5042229;28;20036;-74
2021/11/17 08:06:15;;;;;;;45.28;17.08;;;;;;;5.66;93.39;101821.53;5041399;28;20032;-74
2021/11/17 08:08:43;;;;;;;45.22;17.67;;;;;;;5.68;93.19;101828.34;5035738;28;20040;-74
2021/11/17 08:11:12;;;;;;;45.47;16.88;;;;;;;5.63;94.01;101826.03;5031170;28;20031;-74
2021/11/17 08:13:37;;;;;;;46.45;18.73;;;;;;;5.68;93.21;101828.34;5043866;28;20037;-74
2021/11/17 08:16:05;;;;;;;40.78;16.83;;;;;;;5.72;94.10;101828.03;5066462;28;20032;-74
2021/11/17 08:18:32;;;;;;;44.28;17.00;;;;;;;5.71;93.71;101828.13;5066774;28;20520;-76
2021/11/17 08:20:58;;;;;;;40.10;16.95;;;;;;;5.76;93.80;101826.91;5062086;28;20035;-74
2021/11/17 08:23:24;;;;;;;42.42;16.35;;;;;;;5.69;93.92;101824.81;5061393;28;20033;-74
2021/11/17 08:25:49;;;;;;;41.22;17.40;;;;;;;5.66;94.34;101829.25;5066370;28;20447;-74
2021/11/17 08:28:16;;;;;;;46.15;17.85;;;;;;;5.70;94.25;101827.31;5062773;28;20028;-74
2021/11/17 08:30:43;;;;;;;43.42;16.90;;;;;;;5.74;93.59;101835.66;5066722;28;20021;-74
2021/11/17 08:33:09;;;;;;;40.33;16.60;;;;;;;5.77;94.33;101832.91;5041030;28;20043;-74
2021/11/17 08:35:36;;;;;;;54.13;17.98;;;;;;;5.88;93.40;101834.75;5047586;28;20465;-74
2021/11/17 08:38:04;;;;;;;40.83;16.90;;;;;;;5.79;93.55;101839.56;5058918;28;20112;-73
2021/11/17 08:40:34;;;;;;;46.20;17.35;;;;;;;5.78;94.14;101837.09;5058959;28;20074;-74
2021/11/17 08:43:00;;;;;;;47.15;17.10;;;;;;;5.76;94.15;101838.94;5069515;28;20564;-74
2021/11/17 08:45:27;;;;;;;47.42;17.92;;;;;;;5.81;93.80;101836.91;5049590;28;20037;-74
2021/11/17 08:47:53;;;;;;;41.55;17.23;;;;;;;5.95;93.14;101828.28;5044883;28;20039;-73
2021/11/17 08:50:23;;;;;;;44.67;16.98;;;;;;;5.91;93.51;101821.69;5061861;28;20111;-74
2021/11/17 08:52:50;;;;;;;50.05;17.15;;;;;;;5.88;93.59;101827.03;5049487;28;20442;-73
2021/11/17 08:55:16;;;;;;;43.58;18.05;;;;;;;5.89;93.41;101828.69;5043578;28;20039;-75
2021/11/17 08:57:43;;;;;;;46.65;17.33;;;;;;;6.02;92.91;101820.06;5035856;28;20032;-74
2021/11/17 09:00:12;;;;;;;46.00;17.52;;;;;;;5.99;93.30;101830.59;5079928;28;20509;-74
2021/11/17 09:02:43;;;;;;;42.30;17.02;;;;;;;5.92;93.32;101831.88;5060092;28;20035;-74
2021/11/17 09:05:18;;;;;;;43.95;17.38;;;;;;;5.88;94.21;101835.59;5053920;28;20391;-74
2021/11/17 09:07:46;;;;;;;45.10;17.63;;;;;;;5.94;94.40;101845.47;5051041;28;20392;-75
2021/11/17 09:10:18;;;;;;;52.30;19.85;;;;;;;6.01;94.22;101848.53;5048071;28;20186;-75
2021/11/17 09:12:46;;;;;;;50.00;18.65;;;;;;;6.09;93.57;101848.84;5062123;28;20544;-74
2021/11/17 09:15:13;;;;;;;52.25;19.58;;;;;;;6.14;93.37;101839.06;5057121;28;20043;-73
2021/11/17 09:17:40;;;;;;;48.60;18.10;;;;;;;6.25;93.25;101846.06;5053933;28;20067;-74
2021/11/17 09:20:08;;;;;;;50.00;19.88;;;;;;;6.21;93.20;101844.63;5043496;28;20039;-75
2021/11/17 09:22:34;;;;;;;46.58;18.83;;;;;;;6.17;93.53;101841.41;5052428;28;20025;-73
2021/11/17 09:25:00;;;;;;;47.95;18.67;;;;;;;6.11;94.24;101841.03;5046003;28;20533;-73
2021/11/17 09:27:26;;;;;;;54.88;19.95;;;;;;;6.11;94.09;101831.53;5042005;28;20070;-74
2021/11/17 09:29:52;;;;;;;52.28;19.15;;;;;;;6.11;94.56;101835.88;5041476;28;20047;-74
2021/11/17 09:32:17;;;;;;;55.47;20.63;;;;;;;6.23;94.17;101835.88;5054369;28;20498;-74
2021/11/17 09:34:43;;;;;;;59.65;22.65;;;;;;;6.25;94.31;101840.91;5058906;28;20044;-73
2021/11/17 09:37:11;;;;;;;54.88;19.20;;;;;;;6.31;94.19;101830.22;5072841;28;20025;-74
2021/11/17 09:39:38;;;;;;;49.47;20.00;;;;;;;6.23;94.50;101833.31;5058938;28;20029;-74
2021/11/17 09:42:05;;;;;;;58.20;21.02;;;;;;;6.29;94.76;101841.53;5040213;28;20068;-73
2021/11/17 09:44:40;;;;;;;44.80;17.65;;;;;;;6.33;95.12;101864.44;5051271;28;20040;-73
2021/11/17 09:47:10;;;;;;;52.28;19.90;;;;;;;6.36;95.58;101882.25;5069335;28;20042;-75
2021/11/17 09:49:48;;;;;;;46.80;18.85;;;;;;;6.45;95.73;101883.38;5049667;28;20040;-73
2021/11/17 09:52:25;;;;;;;51.05;19.67;;;;;;;6.37;95.65;101878.75;5037494;28;20033;-74
2021/11/17 09:54:57;;;;;;;52.28;19.88;;;;;;;6.31;96.16;101868.00;5058670;28;20032;-74
2021/11/17 09:57:27;;;;;;;48.97;18.65;;;;;;;6.41;96.37;101869.06;5056545;28;20039;-74
2021/11/17 10:00:17;;;;;;;50.72;18.20;;;;;;;6.46;96.34;101859.28;5055020;28;20036;-74
2021/11/17 10:02:55;;;;;;;56.42;20.33;;;;;;;6.52;96.65;101863.19;5064704;28;20068;-73
2021/11/17 10:06:02;;;;;;;53.00;19.73;;;;;;;6.51;96.09;101857.19;5043015;28;20047;-75
2021/11/17 10:14:03;;;;;;;53.45;20.02;;;;;;;6.64;96.61;101888.13;5052470;28;20033;-74
2021/11/17 10:16:30;;;;;;;51.78;19.73;;;;;;;6.65;96.70;101889.78;5050934;28;20472;-74
2021/11/17 10:19:24;;;;;;;50.80;19.60;;;;;;;6.64;96.63;101888.13;5061589;28;20043;-74
2021/11/17 10:22:19;;;;;;;51.75;21.13;;;;;;;6.75;96.88;101885.66;5075576;28;20049;-74
2021/11/17 10:25:03;;;;;;;56.17;21.13;;;;;;;6.89;96.34;101894.19;5058115;28;20128;-73
2021/11/17 10:27:30;;;;;;;51.85;20.35;;;;;;;6.82;96.01;101899.78;5061143;28;20574;-73
2021/11/17 10:30:10;;;;;;;64.55;22.42;;;;;;;6.78;96.54;101893.19;5063897;28;20032;-74
2021/11/17 10:32:58;;;;;;;52.50;22.38;;;;;;;6.77;96.50;101885.53;5047108;28;20044;-74
2021/11/17 10:35:33;;;;;;;57.25;21.90;;;;;;;6.91;96.57;101894.91;5061723;28;20090;-74
2021/11/17 10:38:20;;;;;;;60.22;22.52;;;;;;;6.96;95.85;101885.91;5059090;28;20033;-75
2021/11/17 10:41:15;;;;;;;54.50;20.70;;;;;;;7.00;96.11;101882.19;5048822;28;20051;-74
2021/11/17 10:44:03;;;;;;;62.20;21.40;;;;;;;6.87;96.45;101886.56;5017816;28;20128;-75
2021/11/17 10:46:41;;;;;;;55.63;22.98;;;;;;;7.02;96.39;101880.34;5047742;28;20039;-76
2021/11/17 10:49:12;;;;;;;60.28;23.65;;;;;;;6.99;96.15;101884.91;5047872;28;20050;-74
2021/11/17 10:51:55;;;;;;;63.95;23.23;;;;;;;6.91;96.46;101876.84;5042215;28;20115;-73
2021/11/17 10:54:29;;;;;;;61.67;23.17;;;;;;;7.20;96.20;101878.25;5057984;28;20028;-74
2021/11/17 10:57:09;;;;;;;66.35;24.85;;;;;;;7.14;95.91;101878.69;5065280;28;20028;-73
2021/11/17 10:59:36;;;;;;;63.17;23.45;;;;;;;7.16;96.25;101881.16;5063247;28;20028;-75
2021/11/17 11:02:05;;;;;;;67.22;23.33;;;;;;;7.18;96.22;101872.38;5041330;28;20036;-73
2021/11/17 11:04:37;;;;;;;65.30;23.35;;;;;;;7.10;96.62;101876.41;5064100;28;20028;-73
2021/11/17 11:07:18;;;;;;;68.88;24.33;;;;;;;7.10;97.04;101876.41;5051236;28;20083;-74
2021/11/17 11:09:54;;;;;;;65.75;26.33;;;;;;;7.18;96.84;101882.69;5064220;28;20490;-74
2021/11/17 11:12:23;;;;;;;68.05;26.00;;;;;;;7.20;96.94;101878.25;5062962;28;20414;-73
2021/11/17 11:15:03;;;;;;;78.10;26.33;;;;;;;7.24;96.50;101881.44;5049211;28;20453;-74
2021/11/17 11:17:41;;;;;;;79.25;26.30;;;;;;;7.29;96.54;101871.63;5045253;28;20071;-74
2021/11/17 11:20:16;;;;;;;73.43;25.45;;;;;;;7.17;96.76;101875.88;5049726;28;20127;-74
2021/11/17 11:23:00;;;;;;;68.00;25.35;;;;;;;7.24;96.94;101875.47;5065638;28;20067;-76
2021/11/17 11:25:47;;;;;;;67.47;25.80;;;;;;;7.25;97.29;101871.94;5050487;28;20089;-76
2021/11/17 11:28:22;;;;;;;66.20;24.45;;;;;;;7.34;96.71;101869.53;5032978;28;20098;-73
2021/11/17 11:31:01;;;;;;;71.57;24.05;;;;;;;7.29;97.08;101873.34;5060366;28;20029;-74
2021/11/17 11:33:33;;;;;;;74.95;25.48;;;;;;;7.29;97.44;101876.78;5058096;28;20051;-73
2021/11/17 11:36:19;;;;;;;78.28;27.20;;;;;;;7.31;97.39;101876.66;5040595;28;20038;-74
2021/11/17 11:38:52;;;;;;;71.90;25.10;;;;;;;7.32;97.38;101880.88;5066695;28;20043;-74
2021/11/17 11:41:37;;;;;;;81.53;26.88;;;;;;;7.47;97.05;101877.22;5055917;28;20029;-74
2021/11/17 11:44:23;;;;;;;74.00;26.10;;;;;;;7.49;97.10;101882.28;5037391;28;20090;-74
2021/11/17 11:46:57;;;;;;;87.03;25.67;;;;;;;7.55;96.81;101877.50;5076633;28;20397;-73
2021/11/17 11:49:45;;;;;;;77.57;24.65;;;;;;;7.48;96.61;101873.72;5051818;28;20028;-74
2021/11/17 11:52:23;;;;;;;71.05;25.77;;;;;;;7.54;96.94;101872.47;5049336;28;20032;-73
2021/11/17 11:54:51;;;;;;;64.18;23.80;;;;;;;7.53;96.67;101876.78;5068413;28;20536;-74
2021/11/17 11:57:47;;;;;;;73.82;24.60;;;;;;;7.59;96.81;101872.94;5053521;28;20025;-74
2021/11/17 12:00:25;;;;;;;70.38;23.58;;;;;;;7.63;96.75;101874.38;5059771;28;20047;-75
2021/11/17 12:03:07;;;;;;;75.32;25.02;;;;;;;7.59;97.33;101878.94;5042615;28;20048;-74
2021/11/17 12:05:39;;;;;;;80.15;24.58;;;;;;;7.51;97.39;101883.81;5058095;28;20033;-74
2021/11/17 12:08:28;;;;;;;79.95;25.40;;;;;;;7.65;97.16;101876.81;5060389;28;20093;-74
2021/11/17 12:11:13;;;;;;;72.05;23.17;;;;;;;7.63;97.39;101879.53;5065562;28;20036;-74
2021/11/17 12:13:43;;;;;;;72.25;23.55;;;;;;;7.65;97.67;101877.66;5044792;28;20025;-76
2021/11/17 12:16:19;;;;;;;79.45;23.67;;;;;;;7.65;98.02;101871.66;5061567;28;20024;-73
2021/11/17 12:18:49;;;;;;;81.47;26.30;;;;;;;7.63;98.38;101878.69;5053967;28;20040;-75
2021/11/17 12:21:20;;;;;;;78.28;24.30;;;;;;;7.58;98.33;101879.84;5062621;28;20445;-74
2021/11/17 12:24:14;;;;;;;75.97;22.40;;;;;;;7.51;98.46;101883.81;5058400;28;20592;-74
2021/11/17 12:26:42;;;;;;;80.20;24.58;;;;;;;7.57;99.00;101890.28;5063602;28;20025;-75
2021/11/17 12:29:15;;;;;;;84.10;24.30;;;;;;;7.65;98.53;101882.00;5046525;28;20581;-74
2021/11/17 12:31:54;;;;;;;;;;;;;;;7.59;98.53;101883.25;5062765;28;20024;-74
2021/11/17 12:34:49;;;;;;;82.68;23.55;;;;;;;7.54;98.87;101887.94;5075268;28;19919;-74
2021/11/17 12:37:32;;;;;;;86.28;25.38;;;;;;;7.60;98.92;101880.56;5055648;28;20044;-74
2021/11/17 12:40:00;;;;;;;87.03;25.48;;;;;;;7.62;99.14;101897.72;5045552;28;20041;-76
2021/11/17 12:42:31;;;;;;;93.05;26.38;;;;;;;7.59;99.38;101899.59;5043414;28;20414;-74
2021/11/17 12:44:59;;;;;;;92.50;27.40;;;;;;;7.59;99.08;101894.44;5054479;28;20040;-74
2021/11/17 12:47:49;;;;;;;91.43;25.98;;;;;;;7.57;99.77;101883.38;5044613;28;20082;-74
2021/11/17 12:50:27;;;;;;;99.40;28.08;;;;;;;7.70;99.64;101878.13;5055559;28;20051;-74
2021/11/17 12:52:59;;;;;;;113.03;29.15;;;;;;;7.67;99.65;101893.88;5045349;28;20513;-76
2021/11/17 12:55:34;;;;;;;106.22;29.80;;;;;;;7.62;99.64;101901.13;5030698;28;20033;-74
2021/11/17 12:58:15;;;;;;;94.38;27.75;;;;;;;7.60;99.89;101900.41;5052191;28;20533;-75
2021/11/17 13:01:02;;;;;;;98.53;26.70;;;;;;;7.61;100.00;101904.66;5060668;28;20028;-74
2021/11/17 13:03:37;;;;;;;89.85;27.05;;;;;;;7.71;100.00;101900.47;5030162;28;20037;-73
2021/11/17 13:06:17;;;;;;;96.93;28.27;;;;;;;7.73;100.00;101908.91;5065425;28;20047;-75
2021/11/17 13:08:43;;;;;;;103.13;29.42;;;;;;;7.78;99.86;101921.50;5060263;28;20049;-74
2021/11/17 13:11:19;;;;;;;108.45;31.40;;;;;;;7.85;99.32;101911.53;5048036;28;20032;-76
2021/11/17 13:13:55;;;;;;;102.45;30.77;;;;;;;7.88;98.98;101914.72;5062612;28;20103;-76
2021/11/17 13:16:26;;;;;;;97.80;28.65;;;;;;;7.82;99.44;101915.19;5058844;28;20078;-73
2021/11/17 13:19:14;;;;;;;106.85;31.17;;;;;;;7.77;99.79;101923.25;5064216;28;20041;-74
2021/11/17 13:21:40;;;;;;;99.43;29.70;;;;;;;7.92;99.79;101925.66;5028081;28;20098;-74
2021/11/17 13:24:10;;;;;;;106.20;31.80;;;;;;;7.89;99.33;101934.47;5057847;28;20036;-74
2021/11/17 13:26:48;;;;;;;102.10;30.00;;;;;;;7.92;99.45;101925.66;5055625;28;20060;-75
2021/11/17 13:29:26;;;;;;;100.95;29.48;;;;;;;7.88;99.89;101927.66;5061215;28;20116;-73
2021/11/17 13:32:04;;;;;;;97.55;27.45;;;;;;;7.85;99.89;101919.28;5057829;28;20028;-73
2021/11/17 13:34:43;;;;;;;108.75;31.02;;;;;;;7.86;100.00;101926.13;5028843;28;20028;-73
2021/11/17 13:37:20;;;;;;;103.40;32.40;;;;;;;7.80;100.00;101930.78;5046715;28;20036;-74
2021/11/17 13:40:05;;;;;;;108.60;31.25;;;;;;;7.82;100.00;101927.25;5061516;28;20121;-74
2021/11/17 13:42:31;;;;;;;114.88;31.75;;;;;;;7.80;100.00;101930.78;5063869;28;20078;-74
2021/11/17 13:44:58;;;;;;;120.28;35.05;;;;;;;7.98;100.00;101922.63;5057760;28;20526;-74
2021/11/17 13:47:25;;;;;;;104.18;32.63;;;;;;;8.10;100.00;101923.50;5045290;28;20028;-74
2021/11/17 13:49:55;;;;;;;117.47;31.77;;;;;;;8.06;100.00;101919.50;5044870;28;20534;-74
2021/11/17 13:52:27;;;;;;;111.63;30.83;;;;;;;8.05;100.00;101923.03;5066811;28;20035;-74
2021/11/17 13:54:54;;;;;;;106.63;31.10;;;;;;;8.24;99.86;101917.31;5050867;28;20441;-74
2021/11/17 13:57:21;;;;;;;120.70;32.75;;;;;;;8.16;99.45;101923.06;5043027;28;20037;-74
2021/11/17 13:59:47;;;;;;;103.45;29.92;;;;;;;8.12;99.78;101929.41;5065084;28;20027;-74
2021/11/17 14:02:14;;;;;;;99.72;32.95;;;;;;;8.15;99.78;101926.56;5058462;28;20028;-75
2021/11/17 14:04:40;;;;;;;112.28;31.05;;;;;;;8.12;100.00;101916.47;5059254;28;20405;-73
2021/11/17 14:07:06;;;;;;;103.22;30.92;;;;;;;8.06;100.00;101920.34;5028929;28;20103;-73
2021/11/17 14:09:31;;;;;;;124.90;31.88;;;;;;;8.08;100.00;101930.53;5045365;28;20083;-73
2021/11/17 14:11:58;;;;;;;105.47;31.27;;;;;;;8.13;100.00;101931.84;5062001;28;20428;-74
2021/11/17 14:14:24;;;;;;;103.45;31.90;;;;;;;8.19;100.00;101933.16;5071359;28;20032;-73
2021/11/17 14:16:51;;;;;;;99.18;31.30;;;;;;;8.14;99.86;101933.50;5044951;28;20033;-74
2021/11/17 14:19:16;;;;;;;98.05;33.05;;;;;;;8.19;100.00;101938.31;5054558;28;20039;-74
2021/11/17 14:21:42;;;;;;;93.90;30.70;;;;;;;8.29;99.65;101935.91;5063587;28;20466;-76
2021/11/17 14:24:10;;;;;;;92.45;29.73;;;;;;;8.28;99.23;101948.00;5060787;28;20033;-75
2021/11/17 14:26:39;;;;;;;99.72;29.17;;;;;;;8.27;99.46;101950.69;5062580;28;20095;-74